createdAt,value
2019-02-17T00:00:26.997Z,101137.59
2019-02-17T00:02:53.003Z,101124.91
2019-02-17T00:05:18.872Z,101129.27
2019-02-17T00:07:44.801Z,101130.10
2019-02-17T00:10:10.780Z,101129.64
2019-02-17T00:12:39.758Z,101128.20
2019-02-17T00:15:07.496Z,101129.98
2019-02-17T00:17:33.395Z,101124.72
2019-02-17T00:20:04.818Z,101125.97
2019-02-17T00:22:30.758Z,101120.81
2019-02-17T00:24:56.639Z,101121.28
2019-02-17T00:27:22.501Z,101116.88
2019-02-17T00:29:48.435Z,101124.29
2019-02-17T00:32:14.326Z,101119.91
2019-02-17T00:34:40.186Z,101118.16
2019-02-17T00:37:06.105Z,101117.55
2019-02-17T00:39:31.979Z,101118.87
2019-02-17T00:41:57.861Z,101120.66
2019-02-17T00:44:24.020Z,101117.70
2019-02-17T00:46:49.914Z,101114.54
2019-02-17T00:49:16.081Z,101114.54
2019-02-17T00:51:43.714Z,101116.80
2019-02-17T00:54:09.834Z,101116.38
2019-02-17T00:56:35.940Z,101113.77
2019-02-17T00:59:10.197Z,101116.78
2019-02-17T01:01:31.721Z,101110.66
2019-02-17T01:03:57.738Z,101110.66
2019-02-17T01:06:23.665Z,101116.38
2019-02-17T01:08:49.533Z,101116.38
2019-02-17T01:11:15.586Z,101117.12
2019-02-17T01:13:41.445Z,101114.03
2019-02-17T01:16:07.327Z,101113.12
2019-02-17T01:18:33.258Z,101109.50
2019-02-17T01:20:59.360Z,101113.14
2019-02-17T01:23:25.348Z,101115.70
2019-02-17T01:25:51.350Z,101109.09
2019-02-17T01:28:17.374Z,101115.39
2019-02-17T01:30:43.411Z,101109.18
2019-02-17T01:33:09.482Z,101112.62
2019-02-17T01:35:35.387Z,101110.73
2019-02-17T01:38:01.343Z,101110.73
2019-02-17T01:40:27.340Z,101108.89
2019-02-17T01:42:53.227Z,101117.28
2019-02-17T01:45:19.098Z,101117.21
2019-02-17T01:47:44.991Z,101109.77
2019-02-17T01:50:11.055Z,101104.59
2019-02-17T01:52:37.027Z,101102.45
2019-02-17T01:55:04.937Z,101100.67
2019-02-17T01:57:30.912Z,101101.09
2019-02-17T01:59:56.841Z,101094.95
2019-02-17T02:02:22.726Z,101089.27
2019-02-17T02:04:48.592Z,101083.12
2019-02-17T02:07:14.686Z,101087.53
2019-02-17T02:09:40.601Z,101082.84
2019-02-17T02:12:06.547Z,101081.92
2019-02-17T02:14:32.527Z,101086.30
2019-02-17T02:16:58.527Z,101078.30
2019-02-17T02:19:24.713Z,101080.42
2019-02-17T02:21:50.613Z,101076.95
2019-02-17T02:24:20.575Z,101080.77
2019-02-17T02:26:46.475Z,101082.02
2019-02-17T02:29:12.427Z,101081.22
2019-02-17T02:31:38.354Z,101076.46
2019-02-17T02:34:04.409Z,101077.16
2019-02-17T02:36:30.299Z,101074.90
2019-02-17T02:38:56.219Z,101072.77
2019-02-17T02:41:22.292Z,101061.02
2019-02-17T02:43:48.301Z,101060.98
2019-02-17T02:46:14.290Z,101060.98
2019-02-17T02:48:40.273Z,101050.87
2019-02-17T02:51:06.303Z,101057.41
2019-02-17T02:53:32.285Z,101054.27
2019-02-17T02:55:58.305Z,101054.22
2019-02-17T02:58:24.180Z,101055.95
2019-02-17T03:00:50.043Z,101054.81
2019-02-17T03:03:16.179Z,101049.56
2019-02-17T03:05:43.968Z,101054.64
2019-02-17T03:08:10.044Z,101047.22
2019-02-17T03:10:35.934Z,101042.33
2019-02-17T03:13:01.823Z,101045.73
2019-02-17T03:15:27.756Z,101040.50
2019-02-17T03:17:53.710Z,101039.58
2019-02-17T03:20:19.597Z,101032.56
2019-02-17T03:22:45.488Z,101041.05
2019-02-17T03:25:15.006Z,101032.88
2019-02-17T03:27:40.993Z,101039.88
2019-02-17T03:30:08.889Z,101035.99
2019-02-17T03:32:34.812Z,101039.05
2019-02-17T03:35:00.672Z,101033.84
2019-02-17T03:37:26.648Z,101033.39
2019-02-17T03:39:52.716Z,101028.70
2019-02-17T03:42:18.785Z,101040.05
2019-02-17T03:44:44.784Z,101041.33
2019-02-17T03:47:10.668Z,101040.00
2019-02-17T03:49:36.518Z,101041.59
2019-02-17T03:52:02.546Z,101041.02
2019-02-17T03:54:28.433Z,101040.05
2019-02-17T03:56:54.338Z,101042.66
2019-02-17T03:59:20.426Z,101043.06
2019-02-17T04:01:46.475Z,101046.61
2019-02-17T04:04:12.373Z,101046.67
2019-02-17T04:06:38.427Z,101049.08
2019-02-17T04:09:05.419Z,101043.41
2019-02-17T04:11:31.294Z,101049.06
2019-02-17T04:13:57.472Z,101048.88
2019-02-17T04:16:23.523Z,101044.98
2019-02-17T04:18:49.401Z,101044.98
2019-02-17T04:21:15.282Z,101048.49
2019-02-17T04:23:41.329Z,101053.23
2019-02-17T04:26:07.295Z,101055.03
2019-02-17T04:28:33.273Z,101047.09
2019-02-17T04:30:59.358Z,101052.57
2019-02-17T04:33:25.380Z,101048.59
2019-02-17T04:35:51.273Z,101049.03
2019-02-17T04:38:17.270Z,101046.20
2019-02-17T04:40:43.265Z,101049.88
2019-02-17T04:43:09.249Z,101046.34
2019-02-17T04:45:35.172Z,101045.88
2019-02-17T04:48:01.207Z,101047.58
2019-02-17T04:50:27.264Z,101044.98
2019-02-17T04:52:53.268Z,101041.52
2019-02-17T04:55:19.270Z,101046.66
2019-02-17T04:57:45.260Z,101041.47
2019-02-17T05:00:11.360Z,101041.47
2019-02-17T05:02:37.265Z,101041.42
2019-02-17T05:05:04.604Z,101035.62
2019-02-17T05:07:30.583Z,101040.00
2019-02-17T05:09:56.504Z,101045.34
2019-02-17T05:12:22.473Z,101039.70
2019-02-17T05:14:48.438Z,101041.91
2019-02-17T05:17:14.390Z,101039.30
2019-02-17T05:19:40.265Z,101043.72
2019-02-17T05:22:06.338Z,101041.95
2019-02-17T05:24:32.392Z,101040.53
2019-02-17T05:27:01.979Z,101043.46
2019-02-17T05:29:27.978Z,101041.12
2019-02-17T05:31:53.892Z,101040.02
2019-02-17T05:34:19.885Z,101040.39
2019-02-17T05:36:46.014Z,101035.99
2019-02-17T05:39:12.007Z,101041.28
2019-02-17T05:41:37.930Z,101040.22
2019-02-17T05:44:03.827Z,101042.11
2019-02-17T05:46:29.822Z,101046.50
2019-02-17T05:48:55.721Z,101039.09
2019-02-17T05:51:21.808Z,101039.09
2019-02-17T05:53:47.727Z,101036.84
2019-02-17T05:56:13.620Z,101039.86
2019-02-17T05:58:39.544Z,101041.61
2019-02-17T06:01:07.337Z,101048.09
2019-02-17T06:03:33.319Z,101041.40
2019-02-17T06:05:59.223Z,101033.27
2019-02-17T06:08:25.204Z,101033.30
2019-02-17T06:10:51.232Z,101051.75
2019-02-17T06:13:17.222Z,101052.99
2019-02-17T06:15:43.209Z,101056.91
2019-02-17T06:18:09.280Z,101060.13
2019-02-17T06:20:35.179Z,101062.16
2019-02-17T06:23:01.136Z,101059.52
2019-02-17T06:25:27.160Z,101063.57
2019-02-17T06:27:53.101Z,101070.53
2019-02-17T06:30:22.371Z,101074.66
2019-02-17T06:32:48.429Z,101075.53
2019-02-17T06:35:14.310Z,101077.33
2019-02-17T06:37:40.197Z,101083.09
2019-02-17T06:40:06.918Z,101091.84
2019-02-17T06:42:32.915Z,101084.70
2019-02-17T06:44:58.813Z,101083.93
2019-02-17T06:47:26.657Z,101089.97
2019-02-17T06:49:52.641Z,101092.20
2019-02-17T06:52:18.518Z,101093.02
2019-02-17T06:54:46.641Z,101090.80
2019-02-17T06:57:14.530Z,101090.28
2019-02-17T06:59:40.540Z,101088.69
2019-02-17T07:02:06.623Z,101086.06
2019-02-17T07:04:37.384Z,101090.11
2019-02-17T07:07:03.954Z,101090.67
2019-02-17T07:09:29.807Z,101087.77
2019-02-17T07:11:56.904Z,101087.86
2019-02-17T07:14:23.099Z,101084.36
2019-02-17T07:16:48.972Z,101087.97
2019-02-17T07:19:15.044Z,101087.89
2019-02-17T07:21:40.961Z,101092.92
2019-02-17T07:24:06.952Z,101095.72
2019-02-17T07:26:32.862Z,101099.80
2019-02-17T07:28:58.723Z,101088.45
2019-02-17T07:31:34.358Z,101089.74
2019-02-17T07:33:52.629Z,101086.72
2019-02-17T07:36:18.497Z,101088.95
2019-02-17T07:38:44.413Z,101094.70
2019-02-17T07:41:10.309Z,101092.54
2019-02-17T07:43:36.331Z,101091.27
2019-02-17T07:46:02.410Z,101095.19
2019-02-17T07:48:28.319Z,101091.73
2019-02-17T07:50:56.724Z,101095.80
2019-02-17T07:53:22.171Z,101092.35
2019-02-17T07:55:48.274Z,101098.51
2019-02-17T07:58:14.385Z,101090.67
2019-02-17T08:00:40.281Z,101089.48
2019-02-17T08:03:06.195Z,101092.14
2019-02-17T08:05:32.116Z,101090.47
2019-02-17T08:07:58.087Z,101092.28
2019-02-17T08:10:24.038Z,101094.91
2019-02-17T08:12:50.147Z,101098.07
2019-02-17T08:15:16.174Z,101095.94
2019-02-17T08:17:42.074Z,101100.35
2019-02-17T08:20:10.933Z,101099.03
2019-02-17T08:22:36.897Z,101096.45
2019-02-17T08:25:04.637Z,101099.56
2019-02-17T08:27:30.620Z,101093.89
2019-02-17T08:29:56.500Z,101093.45
2019-02-17T08:32:22.435Z,101096.55
2019-02-17T08:34:48.290Z,101089.53
2019-02-17T08:37:14.216Z,101093.49
2019-02-17T08:39:40.105Z,101087.79
2019-02-17T08:42:06.110Z,101085.16
2019-02-17T08:44:32.077Z,101085.14
2019-02-17T08:46:59.955Z,101090.42
2019-02-17T08:49:25.846Z,101091.73
2019-02-17T08:51:51.744Z,101087.32
2019-02-17T08:54:17.602Z,101086.84
2019-02-17T08:56:43.569Z,101089.45
2019-02-17T08:59:09.603Z,101083.70
2019-02-17T09:01:35.501Z,101088.09
2019-02-17T09:04:01.749Z,101089.34
2019-02-17T09:06:27.655Z,101090.16
2019-02-17T09:08:53.529Z,101086.16
2019-02-17T09:11:21.317Z,101082.84
2019-02-17T09:13:47.199Z,101083.72
2019-02-17T09:16:13.104Z,101083.58
2019-02-17T09:18:39.086Z,101082.50
2019-02-17T09:21:05.030Z,101080.27
2019-02-17T09:23:30.916Z,101081.56
2019-02-17T09:25:56.821Z,101081.42
2019-02-17T09:28:22.836Z,101087.02
2019-02-17T09:30:48.695Z,101081.09
2019-02-17T09:33:18.727Z,101078.33
2019-02-17T09:35:44.830Z,101075.52
2019-02-17T09:38:10.716Z,101069.27
2019-02-17T09:40:36.671Z,101063.94
2019-02-17T09:43:02.761Z,101070.91
2019-02-17T09:45:28.621Z,101070.73
2019-02-17T09:47:54.483Z,101067.97
2019-02-17T09:50:20.562Z,101066.58
2019-02-17T09:52:46.431Z,101065.80
2019-02-17T09:55:12.407Z,101066.56
2019-02-17T09:57:38.939Z,101057.63
2019-02-17T10:00:08.280Z,101061.54
2019-02-17T10:02:34.248Z,101056.11
2019-02-17T10:05:00.401Z,101056.46
2019-02-17T10:07:26.379Z,101058.39
2019-02-17T10:09:52.246Z,101057.89
2019-02-17T10:12:18.131Z,101058.57
2019-02-17T10:14:44.111Z,101056.22
2019-02-17T10:17:10.004Z,101055.95
2019-02-17T10:19:35.881Z,101055.80
2019-02-17T10:22:01.859Z,101055.70
2019-02-17T10:24:28.093Z,101060.42
2019-02-17T10:26:53.963Z,101056.47
2019-02-17T10:29:19.956Z,101052.74
2019-02-17T10:31:45.980Z,101050.42
2019-02-17T10:34:12.009Z,101042.20
2019-02-17T10:36:37.900Z,101044.63
2019-02-17T10:39:05.087Z,101043.30
2019-02-17T10:41:31.095Z,101048.41
2019-02-17T10:43:57.048Z,101044.86
2019-02-17T10:46:22.976Z,101034.80
2019-02-17T10:48:48.964Z,101029.11
2019-02-17T10:51:14.824Z,101026.70
2019-02-17T10:53:40.878Z,101026.91
2019-02-17T10:56:06.768Z,101026.70
2019-02-17T10:58:32.671Z,101022.23
2019-02-17T11:00:58.703Z,101018.42
2019-02-17T11:03:24.700Z,101013.77
2019-02-17T11:05:53.723Z,101013.16
2019-02-17T11:08:19.607Z,101019.98
2019-02-17T11:10:45.695Z,101011.42
2019-02-17T11:13:11.639Z,101004.05
2019-02-17T11:15:37.833Z,101001.28
2019-02-17T11:18:03.796Z,101001.03
2019-02-17T11:20:29.691Z,100989.45
2019-02-17T11:22:55.769Z,100992.75
2019-02-17T11:25:21.667Z,100982.80
2019-02-17T11:27:47.655Z,100980.47
2019-02-17T11:30:18.917Z,100982.20
2019-02-17T11:32:44.835Z,100980.25
2019-02-17T11:35:10.943Z,100978.78
2019-02-17T11:37:36.925Z,100971.77
2019-02-17T11:40:05.651Z,100971.51
2019-02-17T11:42:31.494Z,100962.30
2019-02-17T11:44:57.584Z,100959.84
2019-02-17T11:47:23.499Z,100956.27
2019-02-17T11:49:49.385Z,100949.95
2019-02-17T11:52:15.344Z,100946.20
2019-02-17T11:54:41.264Z,100943.04
2019-02-17T11:57:07.180Z,100943.89
2019-02-17T11:59:33.054Z,100930.60
2019-02-17T12:01:58.959Z,100928.48
2019-02-17T12:04:24.875Z,100928.73
2019-02-17T12:06:50.766Z,100925.88
2019-02-17T12:09:16.778Z,100919.57
2019-02-17T12:11:42.641Z,100916.95
2019-02-17T12:14:08.510Z,100910.14
2019-02-17T12:16:36.957Z,100904.66
2019-02-17T12:19:02.404Z,100900.09
2019-02-17T12:21:30.359Z,100900.61
2019-02-17T12:24:14.968Z,100889.84
2019-02-17T12:26:42.904Z,100884.41
2019-02-17T12:29:13.444Z,100885.03
2019-02-17T12:31:39.818Z,100877.42
2019-02-17T12:34:05.818Z,100883.23
2019-02-17T12:36:34.947Z,100873.61
2019-02-17T12:39:01.107Z,100874.52
2019-02-17T12:41:27.077Z,100860.10
2019-02-17T12:43:53.050Z,100862.07
2019-02-17T12:46:18.982Z,100868.84
2019-02-17T12:48:44.940Z,100854.36
2019-02-17T12:51:11.035Z,100862.19
2019-02-17T12:53:36.954Z,100850.55
2019-02-17T12:56:03.035Z,100856.05
2019-02-17T12:58:30.205Z,100854.98
2019-02-17T13:00:56.262Z,100846.94
2019-02-17T13:03:28.482Z,100851.95
2019-02-17T13:05:50.099Z,100857.91
2019-02-17T13:08:16.125Z,100854.63
2019-02-17T13:10:42.003Z,100858.95
2019-02-17T13:13:07.911Z,100850.59
2019-02-17T13:15:33.771Z,100847.45
2019-02-17T13:17:59.770Z,100853.14
2019-02-17T13:20:25.746Z,100858.30
2019-02-17T13:22:51.685Z,100847.34
2019-02-17T13:25:17.567Z,100842.52
2019-02-17T13:27:43.665Z,100832.67
2019-02-17T13:30:21.413Z,100817.66
2019-02-17T13:32:47.500Z,100804.30
2019-02-17T13:35:13.510Z,100797.45
2019-02-17T13:37:39.624Z,100795.91
2019-02-17T13:40:08.942Z,100791.64
2019-02-17T13:42:34.808Z,100780.42
2019-02-17T13:45:00.727Z,100783.84
2019-02-17T13:47:26.629Z,100775.05
2019-02-17T13:49:52.620Z,100780.79
2019-02-17T13:52:18.593Z,100772.50
2019-02-17T13:54:44.466Z,100772.31
2019-02-17T13:57:10.568Z,100772.05
2019-02-17T13:59:36.544Z,100774.32
2019-02-17T14:02:02.407Z,100762.61
2019-02-17T14:04:28.313Z,100767.50
2019-02-17T14:06:54.587Z,100761.69
2019-02-17T14:09:20.511Z,100760.09
2019-02-17T14:11:46.411Z,100763.41
2019-02-17T14:14:12.324Z,100764.16
2019-02-17T14:16:38.300Z,100766.67
2019-02-17T14:19:04.243Z,100757.14
2019-02-17T14:21:30.110Z,100753.42
2019-02-17T14:23:56.095Z,100758.17
2019-02-17T14:26:22.091Z,100753.94
2019-02-17T14:28:48.032Z,100754.87
2019-02-17T14:31:13.999Z,100748.81
2019-02-17T14:33:39.870Z,100748.75
2019-02-17T14:36:05.770Z,100746.70
2019-02-17T14:38:31.723Z,100747.23
2019-02-17T14:40:57.693Z,100738.30
2019-02-17T14:43:23.742Z,100728.05
2019-02-17T14:45:49.616Z,100738.27
2019-02-17T14:48:15.474Z,100727.53
2019-02-17T14:50:41.463Z,100736.58
2019-02-17T14:53:07.366Z,100738.42
2019-02-17T14:55:33.418Z,100736.44
2019-02-17T14:58:05.422Z,100727.20
2019-02-17T15:00:27.152Z,100727.67
2019-02-17T15:02:53.040Z,100726.86
2019-02-17T15:05:19.024Z,100726.81
2019-02-17T15:07:44.916Z,100721.12
2019-02-17T15:10:12.279Z,100718.37
2019-02-17T15:12:38.346Z,100717.12
2019-02-17T15:15:09.308Z,100722.50
2019-02-17T15:17:35.459Z,100721.95
2019-02-17T15:20:01.491Z,100719.22
2019-02-17T15:22:27.479Z,100713.11
2019-02-17T15:24:53.325Z,100704.58
2019-02-17T15:27:19.248Z,100708.56
2019-02-17T15:29:45.218Z,100705.02
2019-02-17T15:32:11.124Z,100702.98
2019-02-17T15:34:37.061Z,100703.74
2019-02-17T15:37:03.112Z,100708.34
2019-02-17T15:39:29.106Z,100712.81
2019-02-17T15:41:55.054Z,100703.89
2019-02-17T15:44:21.047Z,100701.06
2019-02-17T15:46:46.908Z,100699.45
2019-02-17T15:49:12.815Z,100700.63
2019-02-17T15:51:38.703Z,100696.84
2019-02-17T15:54:04.698Z,100698.20
2019-02-17T15:56:30.794Z,100697.14
2019-02-17T15:58:56.746Z,100698.88
2019-02-17T16:01:22.845Z,100695.99
2019-02-17T16:03:48.825Z,100697.77
2019-02-17T16:06:14.701Z,100696.68
2019-02-17T16:08:40.706Z,100694.71
2019-02-17T16:11:06.637Z,100687.58
2019-02-17T16:13:32.499Z,100692.05
2019-02-17T16:15:58.376Z,100689.64
2019-02-17T16:18:24.433Z,100684.36
2019-02-17T16:20:50.313Z,100692.36
2019-02-17T16:23:16.263Z,100688.37
2019-02-17T16:25:42.212Z,100688.58
2019-02-17T16:28:08.094Z,100685.47
2019-02-17T16:30:34.003Z,100691.83
2019-02-17T16:32:59.869Z,100685.66
2019-02-17T16:35:25.864Z,100690.02
2019-02-17T16:37:51.775Z,100687.14
2019-02-17T16:40:17.782Z,100683.84
2019-02-17T16:42:43.835Z,100687.64
2019-02-17T16:45:12.328Z,100689.33
2019-02-17T16:47:38.192Z,100689.77
2019-02-17T16:50:31.627Z,100695.91
2019-02-17T16:52:59.512Z,100695.73
2019-02-17T16:55:25.384Z,100694.36
2019-02-17T16:57:51.613Z,100693.77
2019-02-17T17:00:22.737Z,100695.38
2019-02-17T17:02:49.836Z,100695.44
2019-02-17T17:05:15.855Z,100699.59
2019-02-17T17:07:41.737Z,100699.51
2019-02-17T17:10:08.513Z,100695.82
2019-02-17T17:12:34.639Z,100698.28
2019-02-17T17:15:00.494Z,100702.87
2019-02-17T17:17:26.469Z,100700.45
2019-02-17T17:19:52.388Z,100703.73
2019-02-17T17:22:18.383Z,100698.28
2019-02-17T17:24:44.303Z,100702.20
2019-02-17T17:27:10.377Z,100708.88
2019-02-17T17:29:36.253Z,100706.56
2019-02-17T17:32:02.356Z,100709.47
2019-02-17T17:34:28.253Z,100713.00
2019-02-17T17:36:54.184Z,100707.78
2019-02-17T17:39:20.153Z,100713.02
2019-02-17T17:41:46.057Z,100713.14
2019-02-17T17:44:12.185Z,100715.89
2019-02-17T17:46:38.054Z,100719.38
2019-02-17T17:49:03.954Z,100716.08
2019-02-17T17:51:30.061Z,100722.80
2019-02-17T17:53:56.362Z,100725.20
2019-02-17T17:56:22.245Z,100723.77
2019-02-17T17:58:48.336Z,100718.80
2019-02-17T18:01:14.205Z,100728.64
2019-02-17T18:03:40.130Z,100724.19
2019-02-17T18:06:06.146Z,100726.99
2019-02-17T18:08:32.103Z,100727.14
2019-02-17T18:10:58.038Z,100729.56
2019-02-17T18:13:24.017Z,100725.28
2019-02-17T18:15:49.998Z,100725.28
2019-02-17T18:18:17.127Z,100727.20
2019-02-17T18:20:43.008Z,100733.32
2019-02-17T18:23:09.002Z,100734.00
2019-02-17T18:25:34.879Z,100726.10
2019-02-17T18:28:00.846Z,100731.37
2019-02-17T18:30:26.836Z,100734.08
2019-02-17T18:32:52.729Z,100735.59
2019-02-17T18:35:20.496Z,100735.15
2019-02-17T18:37:46.655Z,100728.03
2019-02-17T18:40:16.216Z,100730.08
2019-02-17T18:42:42.468Z,100733.70
2019-02-17T18:45:10.730Z,100733.31
2019-02-17T18:47:39.525Z,100729.50
2019-02-17T18:50:11.282Z,100733.07
2019-02-17T18:52:37.489Z,100728.29
2019-02-17T18:55:05.656Z,100735.36
2019-02-17T18:57:33.169Z,100728.09
2019-02-17T19:00:01.520Z,100734.38
2019-02-17T19:02:27.550Z,100728.20
2019-02-17T19:04:55.588Z,100735.42
2019-02-17T19:07:21.458Z,100738.39
2019-02-17T19:09:47.489Z,100741.14
2019-02-17T19:12:13.575Z,100744.23
2019-02-17T19:14:42.435Z,100743.78
2019-02-17T19:17:08.405Z,100746.61
2019-02-17T19:19:34.343Z,100746.21
2019-02-17T19:22:02.471Z,100752.01
2019-02-17T19:24:28.491Z,100755.98
2019-02-17T19:26:54.514Z,100751.25
2019-02-17T19:29:20.449Z,100757.14
2019-02-17T19:31:46.547Z,100759.27
2019-02-17T19:34:12.459Z,100762.12
2019-02-17T19:36:38.565Z,100761.12
2019-02-17T19:39:04.639Z,100765.04
2019-02-17T19:41:30.541Z,100769.42
2019-02-17T19:43:56.616Z,100767.31
2019-02-17T19:46:22.493Z,100770.83
2019-02-17T19:48:48.370Z,100778.83
2019-02-17T19:51:14.403Z,100779.66
2019-02-17T19:53:40.330Z,100777.00
2019-02-17T19:56:07.566Z,100777.08
2019-02-17T19:58:33.624Z,100781.05
2019-02-17T20:00:59.744Z,100780.20
2019-02-17T20:03:30.576Z,100782.06
2019-02-17T20:05:58.369Z,100786.43
2019-02-17T20:08:24.370Z,100788.73
2019-02-17T20:10:50.249Z,100795.31
2019-02-17T20:13:16.342Z,100795.80
2019-02-17T20:15:42.222Z,100796.26
2019-02-17T20:18:08.153Z,100790.20
2019-02-17T20:20:34.054Z,100799.36
2019-02-17T20:22:59.922Z,100797.62
2019-02-17T20:25:25.896Z,100794.55
2019-02-17T20:27:51.998Z,100795.02
2019-02-17T20:30:18.020Z,100793.29
2019-02-17T20:32:44.143Z,100800.34
2019-02-17T20:35:10.315Z,100799.54
2019-02-17T20:37:36.474Z,100801.20
2019-02-17T20:40:06.107Z,100791.62
2019-02-17T20:42:32.745Z,100792.55
2019-02-17T20:44:58.645Z,100791.69
2019-02-17T20:47:27.911Z,100793.46
2019-02-17T20:49:53.871Z,100795.73
2019-02-17T20:52:19.726Z,100794.01
2019-02-17T20:54:46.303Z,100794.01
2019-02-17T20:57:12.319Z,100800.56
2019-02-17T20:59:38.274Z,100798.38
2019-02-17T21:02:04.611Z,100794.83
2019-02-17T21:04:30.643Z,100797.47
2019-02-17T21:06:56.480Z,100804.95
2019-02-17T21:09:22.815Z,100795.33
2019-02-17T21:11:49.118Z,100797.56
2019-02-17T21:14:15.562Z,100798.91
2019-02-17T21:16:42.007Z,100787.97
2019-02-17T21:19:08.779Z,100790.59
2019-02-17T21:21:35.790Z,100795.88
2019-02-17T21:24:02.600Z,100793.20
2019-02-17T21:26:29.108Z,100795.42
2019-02-17T21:28:55.552Z,100788.34
2019-02-17T21:31:21.897Z,100787.47
2019-02-17T21:33:48.297Z,100786.56
2019-02-17T21:36:22.901Z,100790.97
2019-02-17T21:38:43.017Z,100789.28
2019-02-17T21:41:10.045Z,100785.78
2019-02-17T21:43:36.180Z,100791.09
2019-02-17T21:46:02.225Z,100782.29
2019-02-17T21:48:28.249Z,100787.14
2019-02-17T21:50:54.215Z,100788.08
2019-02-17T21:53:21.014Z,100782.81
2019-02-17T21:55:47.261Z,100782.84
2019-02-17T21:58:13.175Z,100782.87
2019-02-17T22:00:39.181Z,100777.16
2019-02-17T22:03:05.305Z,100777.16
2019-02-17T22:05:31.415Z,100778.89
2019-02-17T22:07:57.261Z,100775.36
2019-02-17T22:10:23.128Z,100776.27
2019-02-17T22:12:51.302Z,100779.31
2019-02-17T22:15:21.721Z,100772.70
2019-02-17T22:17:47.811Z,100770.52
2019-02-17T22:20:13.922Z,100775.36
2019-02-17T22:22:39.900Z,100776.20
2019-02-17T22:25:07.140Z,100775.81
2019-02-17T22:27:33.091Z,100770.13
2019-02-17T22:29:58.982Z,100765.70
2019-02-17T22:32:25.007Z,100755.17
2019-02-17T22:34:50.891Z,100763.10
2019-02-17T22:37:16.762Z,100749.08
2019-02-17T22:39:42.662Z,100757.87
2019-02-17T22:42:08.533Z,100758.31
2019-02-17T22:44:34.618Z,100752.20
2019-02-17T22:47:00.580Z,100755.77
2019-02-17T22:49:29.964Z,100760.15
2019-02-17T22:51:55.938Z,100755.78
2019-02-17T22:54:21.864Z,100754.39
2019-02-17T22:56:47.730Z,100757.02
2019-02-17T22:59:13.756Z,100754.84
2019-02-17T23:01:39.729Z,100750.90
2019-02-17T23:04:05.820Z,100752.23
2019-02-17T23:06:31.721Z,100752.66
2019-02-17T23:08:57.741Z,100759.69
2019-02-17T23:11:23.812Z,100754.02
2019-02-17T23:13:50.036Z,100754.44
2019-02-17T23:16:16.019Z,100758.39
2019-02-17T23:18:42.018Z,100748.78
2019-02-17T23:21:08.016Z,100752.25
2019-02-17T23:23:33.986Z,100758.40
2019-02-17T23:25:59.906Z,100756.22
2019-02-17T23:28:25.986Z,100751.85
2019-02-17T23:30:51.949Z,100754.91
2019-02-17T23:33:17.995Z,100754.04
2019-02-17T23:35:43.889Z,100757.58
2019-02-17T23:38:09.907Z,100755.35
2019-02-17T23:40:35.920Z,100757.98
2019-02-17T23:43:02.030Z,100761.53
2019-02-17T23:45:27.976Z,100761.05
2019-02-17T23:47:53.982Z,100757.98
2019-02-17T23:50:19.978Z,100758.84
2019-02-17T23:52:45.890Z,100756.66
2019-02-17T23:55:12.063Z,100760.59
2019-02-17T23:57:38.558Z,100756.22
